Terminal Aerodrome Forecast
Issued by NWS

Home | Current Version | Previous Version | Text Only | Print | Product List | Glossary On
Versions: 1 2 3 4 5 6 7 8 9 10 11 12 13
000
FTUS45 KRIW 172300
TAFRKS
TAF
KRKS 172331Z 1800/1824 24014KT P6SM SCT250
     FM180200 19010KT P6SM FEW100 SCT200
     FM180700 18008KT P6SM FEW090 BKN200
     FM181500 21013KT P6SM SCT090 BKN150=

USA.gov is the U.S. government's official web portal to all federal, state and local government web resources and services.